Time;durP1;ratioP1;P1;durP2;ratioP2;P2;SDS_P1;SDS_P2;PMS_P1;PMS_P2;Temp;Humidity;BMP_temperature;BMP_pressure;BME280_temperature;BME280_humidity;BME280_pressure;Samples;Min_cycle;Max_cycle;Signal;HPM_P1;HPM_P2
2023/01/09 00:01:30;;;;;;;1.55;1.45;;;;;;;8.99;75.91;98585.94;4423791;32;35072;-76
2023/01/09 00:03:59;;;;;;;2.25;1.35;;;;;;;8.97;76.11;98590.28;4422648;32;34518;-77
2023/01/09 00:06:27;;;;;;;1.33;1.25;;;;;;;8.92;76.14;98599.00;4422604;32;33738;-76
2023/01/09 00:08:55;;;;;;;1.65;1.55;;;;;;;9.08;75.70;98599.59;4423754;32;34763;-77
2023/01/09 00:11:24;;;;;;;2.60;2.37;;;;;;;9.09;75.08;98596.13;4423747;32;35034;-73
2023/01/09 00:13:52;;;;;;;1.20;1.10;;;;;;;9.08;75.37;98601.34;4423587;32;34431;-77
2023/01/09 00:16:20;;;;;;;2.97;2.72;;;;;;;9.20;75.34;98602.91;4423575;32;33424;-77
2023/01/09 00:18:49;;;;;;;1.02;1.02;;;;;;;9.00;75.27;98592.81;4422443;32;33976;-77
2023/01/09 00:21:17;;;;;;;1.50;1.23;;;;;;;9.11;75.13;98590.91;4422417;32;34928;-76
2023/01/09 00:23:45;;;;;;;4.43;1.40;;;;;;;9.17;74.79;98598.59;4423307;32;34360;-74
2023/01/09 00:26:18;;;;;;;0.80;0.80;;;;;;;9.15;74.45;98592.56;4422409;32;34117;-73
2023/01/09 00:28:48;;;;;;;0.98;0.93;;;;;;;9.03;74.48;98591.03;4422380;32;33562;-77
2023/01/09 00:31:17;;;;;;;2.72;2.55;;;;;;;8.97;74.56;98579.91;4422571;32;35906;-77
2023/01/09 00:33:59;;;;;;;1.80;1.70;;;;;;;8.96;74.92;98585.97;4423380;32;35353;-77
2023/01/09 00:36:27;;;;;;;1.20;1.20;;;;;;;9.02;74.49;98589.34;4422351;32;33411;-78
2023/01/09 00:38:55;;;;;;;0.95;0.95;;;;;;;8.91;74.75;98586.91;4422210;32;33907;-77
2023/01/09 00:41:29;;;;;;;0.95;0.95;;;;;;;8.82;74.85;98586.19;4423240;32;35196;-76
2023/01/09 00:44:02;;;;;;;0.70;0.70;;;;;;;8.83;74.32;98582.72;4422115;32;35261;-72
2023/01/09 00:46:33;;;;;;;1.62;1.52;;;;;;;8.68;73.86;98576.91;4423604;32;33615;-78
2023/01/09 00:49:04;;;;;;;1.35;1.25;;;;;;;8.74;73.55;98581.13;4423983;32;34730;-72
2023/01/09 00:51:32;;;;;;;0.98;0.98;;;;;;;8.87;72.94;98569.66;4423895;32;35834;-73
2023/01/09 00:54:01;;;;;;;1.15;1.12;;;;;;;8.99;72.17;98572.94;4425042;32;34356;-77
2023/01/09 00:56:30;;;;;;;4.45;3.55;;;;;;;8.43;75.01;98576.37;4425065;32;34289;-72
2023/01/09 00:58:58;;;;;;;2.28;1.42;;;;;;;7.94;77.85;98570.13;4424918;32;33880;-77
2023/01/09 01:01:26;;;;;;;2.20;1.60;;;;;;;7.81;78.21;98570.28;4425057;32;34898;-72
2023/01/09 01:03:54;;;;;;;1.45;1.37;;;;;;;8.38;75.63;98562.59;4423858;32;33720;-73
2023/01/09 01:09:09;;;;;;;;;;;;;;;8.33;75.26;98562.69;4424350;32;33864;-77
2023/01/09 01:11:37;;;;;;;1.02;1.02;;;;;;;8.15;76.13;98558.59;4424989;32;36076;-78
2023/01/09 01:14:05;;;;;;;1.98;1.50;;;;;;;8.13;75.95;98555.16;4424956;32;34582;-77
2023/01/09 01:16:33;;;;;;;1.62;1.52;;;;;;;8.02;77.04;98557.03;4424920;32;33122;-75
2023/01/09 01:19:01;;;;;;;1.30;1.23;;;;;;;8.11;77.08;98556.91;4424772;32;33997;-74
2023/01/09 01:21:29;;;;;;;2.72;2.37;;;;;;;7.86;78.89;98555.53;4424902;32;36011;-77
2023/01/09 01:23:58;;;;;;;1.58;1.48;;;;;;;8.15;77.00;98557.72;4424913;32;34384;-76
2023/01/09 01:26:25;;;;;;;2.10;1.92;;;;;;;7.72;78.92;98553.94;4423703;32;32594;-72
2023/01/09 01:28:53;;;;;;;1.58;1.50;;;;;;;8.16;78.81;98549.06;4424906;32;33931;-72
2023/01/09 01:31:22;;;;;;;1.45;1.35;;;;;;;8.37;79.55;98547.06;4424789;32;34934;-73
2023/01/09 01:33:49;;;;;;;2.75;2.58;;;;;;;8.52;79.24;98537.34;4424786;32;34382;-77
2023/01/09 01:36:17;;;;;;;1.73;1.62;;;;;;;8.68;78.43;98525.00;4424821;32;33485;-78
2023/01/09 01:38:46;;;;;;;1.23;1.12;;;;;;;8.90;77.90;98527.22;4423623;32;33965;-77
2023/01/09 01:41:28;;;;;;;1.55;1.42;;;;;;;8.88;76.96;98518.59;4423481;32;34366;-72
2023/01/09 01:44:02;;;;;;;1.15;1.15;;;;;;;9.07;76.85;98514.81;4423770;32;34680;-76
2023/01/09 01:46:32;;;;;;;1.40;1.30;;;;;;;8.92;76.90;98518.50;4424837;32;33776;-78
2023/01/09 01:49:09;;;;;;;0.77;0.77;;;;;;;8.95;76.96;98512.44;4423625;32;33128;-77
2023/01/09 01:51:40;;;;;;;1.33;1.23;;;;;;;8.84;77.42;98509.13;4423707;32;34635;-78
2023/01/09 01:54:13;;;;;;;1.75;1.55;;;;;;;8.88;76.65;98501.28;4424763;32;35061;-77
2023/01/09 01:56:45;;;;;;;0.60;0.60;;;;;;;9.00;76.58;98509.72;4422814;32;33013;-78
2023/01/09 01:59:23;;;;;;;4.97;4.35;;;;;;;9.11;76.07;98503.47;4410912;32;33279;-73
2023/01/09 02:01:54;;;;;;;5.12;1.27;;;;;;;9.27;75.22;98496.25;4423546;32;35134;-78
2023/01/09 02:04:22;;;;;;;0.52;0.52;;;;;;;9.16;75.81;98495.59;4423523;32;34526;-73
2023/01/09 02:06:52;;;;;;;1.90;1.80;;;;;;;9.08;76.43;98485.34;4424545;32;34351;-78
2023/01/09 02:09:21;;;;;;;2.05;1.85;;;;;;;9.23;75.52;98484.22;4424546;32;33984;-77
2023/01/09 02:11:51;;;;;;;1.27;1.17;;;;;;;9.41;74.63;98476.94;4423306;32;35160;-77
2023/01/09 02:14:23;;;;;;;1.00;0.98;;;;;;;9.72;73.51;98471.94;4423408;32;34312;-77
2023/01/09 02:17:33;;;;;;;0.80;0.80;;;;;;;9.43;74.46;98475.16;4423443;32;34397;-77
2023/01/09 02:20:39;;;;;;;1.00;0.85;;;;;;;9.34;75.02;98459.78;4424503;32;33650;-77
2023/01/09 02:23:38;;;;;;;1.33;0.95;;;;;;;9.16;75.91;98467.03;4419549;32;33656;-77
2023/01/09 02:26:18;;;;;;;2.47;2.25;;;;;;;9.11;76.52;98459.31;4424509;32;34571;-72
2023/01/09 02:29:24;;;;;;;0.57;0.57;;;;;;;9.55;74.67;98467.13;4424575;32;33452;-76
2023/01/09 02:32:08;;;;;;;1.23;1.23;;;;;;;9.92;73.65;98463.72;4398017;32;33883;-74
2023/01/09 02:34:55;;;;;;;2.47;2.28;;;;;;;9.30;76.12;98458.97;4424491;32;34949;-77
2023/01/09 02:37:42;;;;;;;1.62;1.45;;;;;;;9.53;75.39;98461.09;4435832;32;35223;-72
2023/01/09 02:40:27;;;;;;;8.35;4.03;;;;;;;8.89;77.95;98463.19;4424343;32;33625;-77
2023/01/09 02:42:57;;;;;;;0.95;0.95;;;;;;;9.51;75.54;98460.25;4423280;32;33952;-76
2023/01/09 02:45:25;;;;;;;0.70;0.70;;;;;;;9.36;75.97;98447.59;4423120;32;35159;-77
2023/01/09 02:47:53;;;;;;;1.08;0.80;;;;;;;9.40;75.80;98449.25;4424552;32;35309;-72
2023/01/09 02:50:32;;;;;;;0.82;0.82;;;;;;;9.59;75.01;98455.75;4424297;32;33341;-78
2023/01/09 02:53:35;;;;;;;0.70;0.70;;;;;;;9.74;74.62;98445.91;4423442;32;33295;-77
2023/01/09 02:56:19;;;;;;;1.00;0.98;;;;;;;9.93;73.86;98448.97;4418932;32;35742;-75
2023/01/09 02:59:05;;;;;;;3.83;1.77;;;;;;;9.53;75.12;98435.12;4423078;32;34447;-77
2023/01/09 03:01:33;;;;;;;0.88;0.88;;;;;;;9.45;75.15;98431.81;4424351;32;33418;-75
2023/01/09 03:04:38;;;;;;;0.88;0.88;;;;;;;9.50;75.12;98424.78;4423013;32;33125;-77
2023/01/09 03:07:36;;;;;;;1.98;0.82;;;;;;;9.20;76.24;98419.31;4423038;32;35094;-77
2023/01/09 03:10:16;;;;;;;1.27;1.17;;;;;;;9.59;74.62;98426.31;4422922;32;34219;-77
2023/01/09 03:12:46;;;;;;;1.40;1.30;;;;;;;9.18;75.27;98418.50;4423085;32;33432;-76
2023/01/09 03:15:17;;;;;;;1.50;1.40;;;;;;;9.63;74.45;98423.59;4423034;32;34724;-72
2023/01/09 03:17:47;;;;;;;2.03;1.90;;;;;;;9.22;75.14;98420.16;4422893;32;36031;-78
2023/01/09 03:20:19;;;;;;;1.00;1.00;;;;;;;9.61;74.26;98416.75;4422975;32;34510;-72
2023/01/09 03:22:58;;;;;;;1.90;1.37;;;;;;;9.39;74.97;98418.94;4422829;32;34228;-75
2023/01/09 03:25:28;;;;;;;0.70;0.70;;;;;;;9.67;74.16;98411.41;4422982;32;33776;-77
2023/01/09 03:27:59;;;;;;;1.05;1.05;;;;;;;9.54;74.11;98416.03;4422858;32;34238;-73
2023/01/09 03:30:29;;;;;;;2.42;2.22;;;;;;;9.66;73.66;98410.56;4410419;32;32861;-77
2023/01/09 03:32:57;;;;;;;1.20;1.10;;;;;;;10.06;71.98;98416.63;4422867;32;33664;-77
2023/01/09 03:35:26;;;;;;;1.58;1.48;;;;;;;9.42;74.08;98411.97;4422834;32;34137;-77
2023/01/09 03:37:54;;;;;;;0.47;0.47;;;;;;;9.45;74.15;98405.81;4422826;32;35160;-73
2023/01/09 03:40:22;;;;;;;0.70;0.70;;;;;;;9.85;72.34;98410.16;4423841;32;34340;-77
2023/01/09 03:42:50;;;;;;;0.65;0.65;;;;;;;9.58;73.99;98404.69;4422813;32;33819;-77
2023/01/09 03:45:18;;;;;;;4.20;2.33;;;;;;;9.17;75.32;98401.19;4423874;32;33891;-77
2023/01/09 03:47:47;;;;;;;0.45;0.45;;;;;;;9.30;74.79;98394.88;4422700;32;34249;-77
2023/01/09 03:50:15;;;;;;;0.60;0.60;;;;;;;9.33;74.77;98395.69;4423889;32;34482;-75
2023/01/09 03:52:42;;;;;;;2.47;2.28;;;;;;;9.48;73.97;98395.38;4423914;32;34250;-77
2023/01/09 03:55:11;;;;;;;2.58;1.92;;;;;;;9.79;73.02;98399.87;4422738;32;33878;-77
2023/01/09 03:57:42;;;;;;;3.20;2.90;;;;;;;9.13;74.97;98404.75;4423910;32;35092;-77
2023/01/09 04:00:10;;;;;;;1.42;1.35;;;;;;;9.40;74.01;98392.91;4423696;32;34426;-77
2023/01/09 04:02:38;;;;;;;2.87;1.40;;;;;;;9.26;74.48;98398.41;4423810;32;33526;-73
2023/01/09 04:05:07;;;;;;;1.30;1.23;;;;;;;9.57;73.88;98394.31;4423800;32;33901;-77
2023/01/09 04:07:35;;;;;;;0.60;0.60;;;;;;;9.55;73.50;98394.34;4423912;32;35765;-72
2023/01/09 04:10:03;;;;;;;1.60;1.12;;;;;;;9.95;71.93;98395.19;4423770;32;35234;-73
2023/01/09 04:12:32;;;;;;;1.40;1.30;;;;;;;9.60;73.06;98384.72;4423776;32;33439;-76
2023/01/09 04:14:59;;;;;;;1.17;1.17;;;;;;;9.69;72.85;98383.66;4422495;32;33934;-75
2023/01/09 04:17:27;;;;;;;1.27;1.20;;;;;;;9.75;72.62;98393.91;4423595;32;35012;-75
2023/01/09 04:19:57;;;;;;;0.52;0.52;;;;;;;9.46;73.55;98391.97;4421485;32;34374;-76
2023/01/09 04:22:25;;;;;;;1.15;1.15;;;;;;;9.64;73.50;98393.28;4423551;32;33628;-72
2023/01/09 04:24:53;;;;;;;0.82;0.82;;;;;;;9.39;74.32;98395.53;4434785;32;33788;-73
2023/01/09 04:27:22;;;;;;;0.90;0.90;;;;;;;9.51;73.25;98405.69;4423780;32;35924;-76
2023/01/09 04:29:50;;;;;;;3.03;1.58;;;;;;;9.61;73.22;98402.00;4434850;32;34513;-73
2023/01/09 04:32:18;;;;;;;3.53;1.20;;;;;;;9.49;73.29;98404.88;4423603;32;33508;-75
2023/01/09 04:34:47;;;;;;;3.47;3.17;;;;;;;9.63;72.66;98395.03;4423440;32;33798;-76
2023/01/09 04:37:14;;;;;;;0.65;0.65;;;;;;;9.55;73.36;98402.16;4423244;32;35735;-73
2023/01/09 04:39:43;;;;;;;1.15;0.98;;;;;;;9.58;73.56;98407.28;4423161;32;34334;-76
2023/01/09 04:42:11;;;;;;;1.25;1.15;;;;;;;9.58;73.96;98401.22;4423272;32;33444;-76
2023/01/09 04:44:39;;;;;;;3.12;1.95;;;;;;;9.75;72.91;98408.66;4423145;32;34669;-76
2023/01/09 04:47:08;;;;;;;1.50;1.37;;;;;;;9.24;75.46;98396.75;4409545;32;34368;-75
2023/01/09 04:49:36;;;;;;;1.37;1.33;;;;;;;9.43;74.75;98399.81;4422074;32;34507;-75
2023/01/09 04:52:04;;;;;;;2.53;2.33;;;;;;;9.48;74.57;98384.97;4423159;32;33502;-73
2023/01/09 04:54:33;;;;;;;2.25;1.50;;;;;;;9.88;73.35;98394.47;4423104;32;34067;-76
2023/01/09 04:57:01;;;;;;;2.47;2.28;;;;;;;9.60;74.19;98389.03;4423011;32;35188;-77
2023/01/09 04:59:29;;;;;;;1.60;1.50;;;;;;;9.45;74.42;98383.28;4422970;32;34462;-76
2023/01/09 05:01:58;;;;;;;1.52;1.42;;;;;;;9.54;74.10;98387.44;4434556;32;34354;-75
2023/01/09 05:04:26;;;;;;;0.77;0.77;;;;;;;9.42;74.61;98391.19;4423074;32;34117;-75
2023/01/09 05:06:54;;;;;;;2.33;2.10;;;;;;;9.26;74.81;98390.59;4423137;32;36153;-73
2023/01/09 05:09:22;;;;;;;1.60;1.50;;;;;;;9.42;74.29;98385.09;4419850;32;35150;-71
2023/01/09 05:11:51;;;;;;;1.25;1.15;;;;;;;9.41;74.20;98394.66;4434007;32;34235;-72
2023/01/09 05:14:19;;;;;;;1.83;1.70;;;;;;;9.33;74.12;98385.31;4422694;32;34666;-73
2023/01/09 05:16:47;;;;;;;3.75;2.17;;;;;;;9.58;73.75;98381.31;4422556;32;34960;-72
2023/01/09 05:19:15;;;;;;;2.90;2.30;;;;;;;8.82;75.71;98379.38;4422427;32;34480;-72
2023/01/09 05:21:43;;;;;;;3.33;3.03;;;;;;;9.18;74.61;98382.12;4422513;32;33417;-73
2023/01/09 05:24:11;;;;;;;2.12;1.95;;;;;;;9.29;73.86;98372.38;4418222;32;33109;-72
2023/01/09 05:26:40;;;;;;;1.55;1.48;;;;;;;9.38;74.19;98373.91;4407232;32;35917;-73
2023/01/09 05:29:08;;;;;;;0.93;0.62;;;;;;;9.23;74.55;98375.13;4408108;32;35262;-75
2023/01/09 05:31:36;;;;;;;2.10;1.98;;;;;;;9.08;74.71;98367.63;4422450;32;34204;-73
2023/01/09 05:34:04;;;;;;;1.10;1.10;;;;;;;9.31;73.75;98377.53;4424502;32;33757;-73
2023/01/09 05:36:32;;;;;;;1.60;1.50;;;;;;;9.27;74.43;98381.94;4424807;32;35760;-75
2023/01/09 05:39:01;;;;;;;2.03;1.92;;;;;;;9.22;74.56;98382.94;4423363;32;33723;-72
2023/01/09 05:41:30;;;;;;;2.28;2.17;;;;;;;8.92;75.58;98385.25;4424567;32;33339;-71
2023/01/09 05:43:58;;;;;;;0.50;0.50;;;;;;;8.77;76.33;98382.94;4424609;32;33472;-71
2023/01/09 05:46:26;;;;;;;4.62;2.58;;;;;;;8.82;76.33;98376.78;4410633;32;34343;-72
2023/01/09 05:48:54;;;;;;;0.90;0.90;;;;;;;8.88;76.25;98379.28;4424395;32;35264;-72
2023/01/09 05:51:22;;;;;;;1.35;1.30;;;;;;;9.15;74.99;98377.00;4424540;32;33602;-76
2023/01/09 05:53:50;;;;;;;1.65;1.55;;;;;;;8.99;75.61;98373.84;4423298;32;33841;-72
2023/01/09 05:56:18;;;;;;;1.02;1.02;;;;;;;9.12;74.45;98377.06;4421013;32;35276;-73
2023/01/09 05:58:46;;;;;;;3.35;3.08;;;;;;;8.93;75.52;98371.41;4407984;32;33798;-72
2023/01/09 06:01:15;;;;;;;3.70;2.35;;;;;;;9.13;74.83;98376.19;4423365;32;34222;-73
2023/01/09 06:03:43;;;;;;;1.60;1.50;;;;;;;9.21;73.47;98379.50;4424693;32;34829;-72
2023/01/09 06:06:12;;;;;;;1.42;1.37;;;;;;;9.07;75.12;98376.28;4424285;32;35151;-73
2023/01/09 06:08:40;;;;;;;1.65;1.10;;;;;;;9.38;73.40;98380.88;4424512;32;34427;-74
2023/01/09 06:11:09;;;;;;;2.30;2.08;;;;;;;8.61;76.29;98385.84;4423159;32;33468;-72
2023/01/09 06:13:37;;;;;;;1.60;1.23;;;;;;;8.57;77.15;98389.34;4424403;32;33879;-73
2023/01/09 06:16:05;;;;;;;1.60;1.50;;;;;;;8.48;77.47;98387.78;4424263;32;34911;-73
2023/01/09 06:18:34;;;;;;;3.20;1.17;;;;;;;8.54;76.30;98384.22;4424229;32;34518;-73
2023/01/09 06:21:01;;;;;;;0.80;0.80;;;;;;;8.76;76.19;98392.47;4424432;32;32987;-73
2023/01/09 06:23:29;;;;;;;1.15;1.12;;;;;;;8.11;79.17;98400.50;4424183;32;34782;-73
2023/01/09 06:25:58;;;;;;;1.62;1.52;;;;;;;8.24;78.23;98386.44;4411751;32;34308;-72
2023/01/09 06:28:26;;;;;;;2.03;1.87;;;;;;;8.94;75.91;98393.00;4408899;32;34073;-74
2023/01/09 06:30:54;;;;;;;2.25;2.15;;;;;;;8.48;77.61;98395.56;4419732;32;34212;-74
2023/01/09 06:33:22;;;;;;;3.22;3.03;;;;;;;8.42;77.89;98398.28;4423122;32;33895;-72
2023/01/09 06:35:50;;;;;;;1.55;1.45;;;;;;;8.19;78.81;98389.97;4413142;32;35061;-72
2023/01/09 06:38:18;;;;;;;1.90;1.55;;;;;;;8.16;79.65;98393.50;4409182;32;35198;-73
2023/01/09 06:40:47;;;;;;;1.35;1.30;;;;;;;8.37;78.50;98394.88;4418343;32;33496;-72
2023/01/09 06:43:15;;;;;;;2.53;2.33;;;;;;;8.44;78.94;98396.50;4423659;32;34822;-72
2023/01/09 06:45:43;;;;;;;1.25;0.82;;;;;;;8.28;79.27;98390.69;4423068;32;35757;-72
2023/01/09 06:48:11;;;;;;;2.05;0.93;;;;;;;8.09;79.96;98392.72;4424052;32;35236;-72
2023/01/09 06:50:40;;;;;;;3.70;2.55;;;;;;;8.53;78.34;98398.09;4414599;32;33541;-72
2023/01/09 06:53:09;;;;;;;1.15;1.05;;;;;;;8.00;80.36;98398.06;4407590;32;33898;-74
2023/01/09 06:55:37;;;;;;;1.15;1.15;;;;;;;8.43;79.38;98387.00;4416818;32;35140;-72
2023/01/09 06:58:06;;;;;;;0.68;0.65;;;;;;;9.01;75.62;98392.00;4422838;32;35021;-76
2023/01/09 07:00:34;;;;;;;2.90;1.67;;;;;;;8.41;78.15;98391.34;4427944;32;33471;-76
2023/01/09 07:03:04;;;;;;;2.20;1.42;;;;;;;8.58;77.78;98390.19;4407630;32;33187;-74
2023/01/09 07:05:37;;;;;;;0.98;0.98;;;;;;;8.59;77.42;98390.19;4407676;32;35129;-74
2023/01/09 07:08:05;;;;;;;1.48;1.12;;;;;;;8.21;78.39;98386.50;4407694;32;35405;-77
2023/01/09 07:10:34;;;;;;;1.65;1.55;;;;;;;8.31;79.34;98387.19;4407757;32;34000;-70
2023/01/09 07:13:02;;;;;;;3.62;3.33;;;;;;;8.29;79.39;98379.41;4407400;32;33730;-72
2023/01/09 07:15:30;;;;;;;5.80;5.32;;;;;;;8.07;79.34;98384.13;4415190;32;35916;-72
2023/01/09 07:17:58;;;;;;;1.50;1.40;;;;;;;8.30;79.12;98377.72;4422859;32;34584;-72
2023/01/09 07:20:26;;;;;;;1.23;1.00;;;;;;;8.11;80.32;98388.38;4423807;32;33413;-73
2023/01/09 07:22:55;;;;;;;5.10;2.80;;;;;;;8.14;79.99;98390.91;4423824;32;34705;-72
2023/01/09 07:25:22;;;;;;;2.30;2.17;;;;;;;7.88;80.85;98390.47;4423707;32;35046;-71
2023/01/09 07:27:50;;;;;;;0.90;0.90;;;;;;;8.19;80.21;98385.66;4423939;32;34484;-71
2023/01/09 07:30:19;;;;;;;1.73;1.62;;;;;;;8.32;78.66;98388.91;4422769;32;33378;-70
2023/01/09 07:32:47;;;;;;;1.35;1.30;;;;;;;8.34;78.47;98385.37;4423955;32;33895;-71
2023/01/09 07:35:15;;;;;;;1.02;0.95;;;;;;;8.43;78.46;98374.03;4422587;32;35268;-72
2023/01/09 07:37:45;;;;;;;7.35;1.85;;;;;;;8.82;77.69;98374.19;4422629;32;33766;-73
2023/01/09 07:40:13;;;;;;;2.58;2.37;;;;;;;8.65;77.97;98371.91;4423697;32;33719;-76
2023/01/09 07:42:41;;;;;;;2.97;2.72;;;;;;;8.49;78.58;98366.16;4423715;32;34748;-71
2023/01/09 07:45:10;;;;;;;2.55;2.05;;;;;;;8.74;77.78;98352.72;4423617;32;35266;-72
2023/01/09 07:47:39;;;;;;;2.40;2.12;;;;;;;8.53;79.12;98367.81;4423714;32;34455;-71
2023/01/09 07:50:08;;;;;;;3.17;2.97;;;;;;;8.98;77.32;98356.56;4422521;32;33508;-71
2023/01/09 07:52:36;;;;;;;1.77;1.67;;;;;;;8.59;77.51;98355.59;4422473;32;33963;-75
2023/01/09 07:55:05;;;;;;;1.70;0.88;;;;;;;8.95;75.83;98353.16;4422419;32;35998;-71
2023/01/09 07:57:33;;;;;;;5.47;2.40;;;;;;;8.87;75.77;98361.97;4423655;32;35127;-70
2023/01/09 08:00:02;;;;;;;1.62;1.52;;;;;;;8.81;75.61;98359.50;4423660;32;33613;-71
2023/01/09 08:02:37;;;;;;;3.25;3.03;;;;;;;9.01;75.53;98353.91;4422618;32;34098;-72
2023/01/09 08:05:08;;;;;;;0.70;0.70;;;;;;;8.89;76.25;98347.25;4423276;32;35053;-70
2023/01/09 08:07:35;;;;;;;0.80;0.80;;;;;;;8.53;76.51;98339.25;4423353;32;34371;-70
2023/01/09 08:10:04;;;;;;;0.60;0.60;;;;;;;8.70;76.25;98345.88;4421980;32;33453;-70
2023/01/09 08:12:32;;;;;;;1.92;1.75;;;;;;;8.32;79.16;98356.03;4423501;32;34691;-70
2023/01/09 08:15:01;;;;;;;2.25;2.10;;;;;;;8.58;78.48;98365.13;4423350;32;35029;-69
2023/01/09 08:17:29;;;;;;;2.67;1.95;;;;;;;8.35;79.18;98386.25;4423455;32;34642;-69
2023/01/09 08:19:57;;;;;;;5.85;3.42;;;;;;;8.01;81.39;98367.81;4423380;32;33561;-70
2023/01/09 08:22:25;;;;;;;8.48;3.30;;;;;;;8.13;81.20;98373.62;4423362;32;33915;-69
2023/01/09 08:24:53;;;;;;;1.70;1.37;;;;;;;8.05;82.13;98367.75;4423323;32;35163;-69
2023/01/09 08:27:22;;;;;;;1.87;1.77;;;;;;;7.89;82.57;98361.09;4423391;32;34394;-70
2023/01/09 08:29:50;;;;;;;3.75;1.70;;;;;;;7.69;83.47;98357.06;4422143;32;34402;-70
2023/01/09 08:32:18;;;;;;;1.25;1.20;;;;;;;7.76;83.04;98355.22;4423152;32;34723;-69
2023/01/09 08:34:46;;;;;;;1.00;1.00;;;;;;;8.02;82.45;98349.63;4423211;32;35090;-70
2023/01/09 08:37:14;;;;;;;2.40;2.30;;;;;;;7.41;84.93;98354.00;4423147;32;34584;-69
2023/01/09 08:39:42;;;;;;;1.58;1.48;;;;;;;7.51;85.98;98362.50;4423275;32;33553;-70
2023/01/09 08:47:46;;;;;;;1.05;0.95;;;;;;;7.71;85.53;98370.87;4423150;32;34577;-69
2023/01/09 08:50:14;;;;;;;2.85;1.45;;;;;;;7.57;85.99;98359.81;4434563;32;34346;-70
2023/01/09 08:52:44;;;;;;;3.70;2.45;;;;;;;7.75;85.83;98372.53;4422938;32;33860;-69
2023/01/09 08:55:12;;;;;;;2.12;1.92;;;;;;;7.85;85.08;98357.66;4422833;32;36017;-70
2023/01/09 08:57:48;;;;;;;2.22;2.08;;;;;;;7.82;85.47;98351.69;4422965;32;35374;-69
2023/01/09 09:00:17;;;;;;;;;;;;;;;7.56;87.08;98346.03;4423184;32;33373;-70
2023/01/09 09:02:53;;;;;;;3.72;2.37;;;;;;;7.83;86.87;98340.44;4422833;32;34037;-70
2023/01/09 09:05:24;;;;;;;2.97;2.35;;;;;;;7.36;87.65;98337.69;4421684;32;36007;-69
2023/01/09 09:07:54;;;;;;;2.40;2.25;;;;;;;7.50;87.12;98350.44;4410787;32;33728;-70
2023/01/09 09:10:26;;;;;;;4.28;1.98;;;;;;;7.71;86.84;98334.59;4424891;32;33447;-70
2023/01/09 09:12:56;;;;;;;1.40;1.30;;;;;;;7.72;86.30;98331.09;4423638;32;33998;-70
2023/01/09 09:15:25;;;;;;;1.65;1.55;;;;;;;7.66;86.37;98336.38;4436234;32;35182;-69
2023/01/09 09:17:59;;;;;;;2.28;2.17;;;;;;;7.78;85.38;98331.03;4423776;32;34524;-69
2023/01/09 09:20:35;;;;;;;2.47;2.28;;;;;;;7.78;86.36;98328.44;4423647;32;33764;-69
2023/01/09 09:23:04;;;;;;;2.03;1.50;;;;;;;8.03;84.68;98322.84;4424631;32;33908;-70
2023/01/09 09:25:37;;;;;;;2.95;2.67;;;;;;;7.87;85.15;98329.13;4424667;32;35157;-70
2023/01/09 09:28:05;;;;;;;2.58;2.42;;;;;;;7.71;85.01;98329.41;4424653;32;34344;-68
2023/01/09 09:30:34;;;;;;;1.15;1.10;;;;;;;7.47;86.31;98325.44;4424660;32;33598;-70
2023/01/09 09:33:03;;;;;;;1.27;1.27;;;;;;;7.69;85.96;98325.94;4424459;32;34784;-69
2023/01/09 09:35:32;;;;;;;1.87;1.77;;;;;;;7.75;85.72;98312.91;4424694;32;35840;-72
2023/01/09 09:38:03;;;;;;;1.73;1.62;;;;;;;7.92;83.85;98316.97;4423477;32;34325;-69
2023/01/09 09:40:56;;;;;;;0.90;0.88;;;;;;;7.57;86.14;98320.97;4423517;32;34203;-71
2023/01/09 09:46:36;;;;;;;2.67;2.45;;;;;;;6.96;90.39;98312.34;4424605;32;35045;-70
2023/01/09 09:49:11;;;;;;;2.90;2.70;;;;;;;6.92;89.45;98313.22;4424438;32;35238;-71
2023/01/09 09:51:49;;;;;;;3.20;2.62;;;;;;;7.42;87.25;98306.53;4423370;32;33421;-73
2023/01/09 09:54:23;;;;;;;2.83;2.55;;;;;;;7.25;87.78;98300.72;4423529;32;34728;-68
2023/01/09 09:57:00;;;;;;;2.47;2.28;;;;;;;7.24;86.87;98311.97;4427772;32;35087;-70
2023/01/09 09:59:32;;;;;;;0.60;0.60;;;;;;;7.36;87.21;98311.81;4408176;32;35194;-69
2023/01/09 10:02:24;;;;;;;1.55;1.45;;;;;;;7.02;88.94;98318.28;4417924;32;34260;-71
2023/01/09 10:05:01;;;;;;;2.35;1.25;;;;;;;6.96;90.22;98308.00;4424439;32;33912;-69
2023/01/09 10:07:34;;;;;;;1.37;1.10;;;;;;;6.90;90.51;98304.62;4424377;32;35738;-69
2023/01/09 10:10:05;;;;;;;3.47;2.15;;;;;;;6.62;93.27;98303.25;4424349;32;34463;-69
2023/01/09 10:12:38;;;;;;;0.60;0.60;;;;;;;7.01;90.70;98305.38;4424447;32;34487;-70
2023/01/09 10:15:16;;;;;;;1.20;1.17;;;;;;;6.71;92.14;98309.19;4423251;32;33892;-71
2023/01/09 10:17:45;;;;;;;0.98;0.98;;;;;;;6.69;92.79;98304.03;4409823;32;35127;-72
2023/01/09 10:20:52;;;;;;;1.95;1.48;;;;;;;6.92;91.87;98300.28;4409132;32;34480;-72
2023/01/09 10:24:02;;;;;;;2.55;2.33;;;;;;;7.15;91.17;98294.84;4403386;32;34193;-72
2023/01/09 10:27:02;;;;;;;2.70;2.45;;;;;;;6.93;91.73;98281.31;4395547;32;33889;-70
2023/01/09 10:29:30;;;;;;;3.28;3.08;;;;;;;7.06;91.25;98285.47;4438327;32;34916;-72
2023/01/09 10:32:07;;;;;;;1.00;1.00;;;;;;;6.90;92.87;98266.69;4439392;32;35133;-71
2023/01/09 10:35:04;;;;;;;3.15;2.95;;;;;;;7.07;92.79;98288.91;4439699;32;33480;-70
2023/01/09 10:37:45;;;;;;;1.15;1.12;;;;;;;7.07;92.20;98261.25;4439219;32;34571;-73
2023/01/09 10:40:22;;;;;;;4.30;3.75;;;;;;;7.28;91.22;98262.69;4438466;32;35978;-71
2023/01/09 10:43:05;;;;;;;1.15;1.10;;;;;;;7.05;92.14;98255.25;4437939;32;35158;-72
2023/01/09 10:45:49;;;;;;;3.15;2.90;;;;;;;7.03;92.13;98251.84;4439660;32;33532;-69
2023/01/09 10:48:29;;;;;;;0.88;0.88;;;;;;;7.03;91.64;98244.94;4439222;32;34008;-70
2023/01/09 10:50:58;;;;;;;3.17;0.90;;;;;;;6.84;93.59;98246.06;4438032;32;35163;-69
2023/01/09 10:53:30;;;;;;;3.58;2.40;;;;;;;6.87;92.98;98242.59;4439461;32;35231;-70
2023/01/09 10:56:06;;;;;;;0.98;0.98;;;;;;;6.77;93.87;98223.72;4439217;32;33485;-70
2023/01/09 10:58:35;;;;;;;2.28;2.12;;;;;;;7.14;92.67;98218.88;4439454;32;33485;-70
2023/01/09 11:01:04;;;;;;;1.58;1.08;;;;;;;7.32;92.04;98215.16;4439015;32;34682;-69
2023/01/09 11:03:32;;;;;;;0.73;0.73;;;;;;;7.02;93.34;98219.06;4439288;32;34473;-69
2023/01/09 11:06:02;;;;;;;1.50;1.40;;;;;;;6.97;93.62;98215.69;4439430;32;32877;-69
2023/01/09 11:08:41;;;;;;;1.77;1.65;;;;;;;7.10;93.58;98212.06;4408843;32;34033;-69
2023/01/09 11:11:11;;;;;;;2.85;2.65;;;;;;;7.27;91.82;98203.16;4408019;32;35127;-69
2023/01/09 11:13:45;;;;;;;1.20;1.10;;;;;;;7.13;90.90;98203.38;4424060;32;34232;-68
2023/01/09 11:16:17;;;;;;;2.87;0.93;;;;;;;7.51;89.87;98209.69;4423988;32;34397;-69
2023/01/09 11:18:58;;;;;;;1.58;1.12;;;;;;;7.24;91.10;98209.25;4422843;32;33840;-69
2023/01/09 11:21:34;;;;;;;1.00;1.00;;;;;;;7.09;91.57;98214.66;4422878;32;35020;-68
2023/01/09 11:24:25;;;;;;;1.52;1.42;;;;;;;7.03;91.75;98211.28;4423685;32;35205;-69
2023/01/09 11:27:23;;;;;;;3.10;2.90;;;;;;;7.06;92.87;98207.81;4423828;32;33450;-69
2023/01/09 11:30:14;;;;;;;1.95;1.40;;;;;;;6.92;93.46;98208.00;4423763;32;33820;-70
2023/01/09 11:32:44;;;;;;;0.93;0.93;;;;;;;7.25;92.31;98195.41;4413180;32;35785;-70
2023/01/09 11:35:21;;;;;;;1.42;1.37;;;;;;;7.08;93.11;98190.50;4408521;32;34443;-71
2023/01/09 11:38:01;;;;;;;1.15;1.05;;;;;;;7.26;92.38;98185.94;4407630;32;33445;-72
2023/01/09 11:40:34;;;;;;;1.45;1.37;;;;;;;6.93;94.46;98182.97;4407619;32;34027;-70
2023/01/09 11:43:10;;;;;;;0.73;0.73;;;;;;;6.79;95.53;98188.34;4407364;32;35094;-72
2023/01/09 11:45:49;;;;;;;1.60;1.42;;;;;;;7.02;94.50;98188.88;4407432;32;34419;-70
2023/01/09 11:48:32;;;;;;;3.22;2.92;;;;;;;7.12;93.88;98186.16;4422184;32;34347;-70
2023/01/09 11:51:04;;;;;;;1.50;1.40;;;;;;;7.26;93.63;98188.53;4423652;32;34739;-73
2023/01/09 11:53:50;;;;;;;3.80;3.37;;;;;;;7.03;95.81;98185.41;4423720;32;35150;-70
2023/01/09 11:56:19;;;;;;;2.10;1.90;;;;;;;7.32;94.07;98180.63;4422538;32;34359;-69
2023/01/09 11:58:48;;;;;;;2.08;1.87;;;;;;;7.25;93.07;98185.06;4439015;32;33620;-70
2023/01/09 12:01:35;;;;;;;1.70;1.60;;;;;;;7.30;93.60;98178.06;4438876;32;33564;-70
2023/01/09 12:04:24;;;;;;;3.05;2.85;;;;;;;7.20;94.72;98179.97;4438879;32;35056;-70
2023/01/09 12:07:09;;;;;;;2.45;2.25;;;;;;;7.29;94.70;98170.31;4450060;32;34390;-69
2023/01/09 12:09:56;;;;;;;1.33;1.30;;;;;;;7.03;95.29;98159.50;4437795;32;34241;-69
2023/01/09 12:12:43;;;;;;;4.20;3.85;;;;;;;6.98;96.12;98160.47;4438796;32;34797;-69
2023/01/09 12:15:20;;;;;;;1.15;1.08;;;;;;;7.12;95.92;98158.50;4438722;32;35929;-70
2023/01/09 12:18:12;;;;;;;3.62;3.33;;;;;;;7.37;95.13;98163.28;4438630;32;34223;-68